Aviation Digital Data Service (ADDS)

Output produced by METARs form (1443 UTC 20 September 2017)
found at http://www.aviationweather.gov/adds/metars/
 
VCBI 201410Z 24008KT 9999 SCT018 28/24 Q1010 NOSIG
TAF VCBI 200940Z 2012/2118 24010KT 9999 SCT017 TX31/2108Z TN27/2100Z 
     TEMPO 2012/2016 SCT016 FEW020CB